sensor_id;sensor_type;location;lat;lon;timestamp;P1;durP1;ratioP1;P2;durP2;ratioP2
48317;SDS011;34127;47.412;9.730;2022-08-05T00:01:16;3.83;;;2.60;;
48317;SDS011;34127;47.412;9.730;2022-08-05T00:03:44;4.22;;;2.85;;
48317;SDS011;34127;47.412;9.730;2022-08-05T00:06:10;3.60;;;2.63;;
48317;SDS011;34127;47.412;9.730;2022-08-05T00:08:37;4.32;;;3.33;;
48317;SDS011;34127;47.412;9.730;2022-08-05T00:11:07;7.72;;;2.95;;
48317;SDS011;34127;47.412;9.730;2022-08-05T00:13:34;6.90;;;3.10;;
48317;SDS011;34127;47.412;9.730;2022-08-05T00:16:01;7.13;;;2.97;;
48317;SDS011;34127;47.412;9.730;2022-08-05T00:18:27;5.25;;;2.90;;
48317;SDS011;34127;47.412;9.730;2022-08-05T00:20:53;5.90;;;2.97;;
48317;SDS011;34127;47.412;9.730;2022-08-05T00:23:20;6.25;;;3.10;;
48317;SDS011;34127;47.412;9.730;2022-08-05T00:25:46;4.38;;;3.08;;
48317;SDS011;34127;47.412;9.730;2022-08-05T00:28:13;6.00;;;3.08;;
48317;SDS011;34127;47.412;9.730;2022-08-05T00:30:39;4.28;;;2.83;;
48317;SDS011;34127;47.412;9.730;2022-08-05T00:33:05;4.82;;;2.72;;
48317;SDS011;34127;47.412;9.730;2022-08-05T00:35:31;4.53;;;2.72;;
48317;SDS011;34127;47.412;9.730;2022-08-05T00:37:57;5.07;;;3.00;;
48317;SDS011;34127;47.412;9.730;2022-08-05T00:40:24;4.10;;;2.85;;
48317;SDS011;34127;47.412;9.730;2022-08-05T00:42:50;6.05;;;3.40;;
48317;SDS011;34127;47.412;9.730;2022-08-05T00:45:17;6.55;;;3.33;;
48317;SDS011;34127;47.412;9.730;2022-08-05T00:47:43;4.78;;;2.80;;
48317;SDS011;34127;47.412;9.730;2022-08-05T00:50:09;4.93;;;2.65;;
48317;SDS011;34127;47.412;9.730;2022-08-05T00:52:35;3.65;;;2.85;;
48317;SDS011;34127;47.412;9.730;2022-08-05T00:55:01;4.40;;;3.10;;
48317;SDS011;34127;47.412;9.730;2022-08-05T00:57:28;5.63;;;3.20;;
48317;SDS011;34127;47.412;9.730;2022-08-05T00:59:54;7.32;;;2.88;;
48317;SDS011;34127;47.412;9.730;2022-08-05T01:02:20;6.03;;;3.28;;
48317;SDS011;34127;47.412;9.730;2022-08-05T01:04:46;3.70;;;2.80;;
48317;SDS011;34127;47.412;9.730;2022-08-05T01:07:12;4.95;;;3.15;;
48317;SDS011;34127;47.412;9.730;2022-08-05T01:09:38;5.07;;;2.85;;
48317;SDS011;34127;47.412;9.730;2022-08-05T01:12:06;4.57;;;2.78;;
48317;SDS011;34127;47.412;9.730;2022-08-05T01:14:47;4.40;;;3.00;;
48317;SDS011;34127;47.412;9.730;2022-08-05T01:17:29;5.60;;;3.28;;
48317;SDS011;34127;47.412;9.730;2022-08-05T01:32:32;5.82;;;2.80;;
48317;SDS011;34127;47.412;9.730;2022-08-05T01:35:01;5.32;;;3.00;;
48317;SDS011;34127;47.412;9.730;2022-08-05T01:39:53;6.28;;;2.95;;
48317;SDS011;34127;47.412;9.730;2022-08-05T01:42:20;4.43;;;3.28;;
48317;SDS011;34127;47.412;9.730;2022-08-05T01:44:48;6.90;;;3.00;;
48317;SDS011;34127;47.412;9.730;2022-08-05T01:47:15;3.85;;;3.05;;
48317;SDS011;34127;47.412;9.730;2022-08-05T01:49:43;5.47;;;2.90;;
48317;SDS011;34127;47.412;9.730;2022-08-05T01:52:09;4.88;;;3.10;;
48317;SDS011;34127;47.412;9.730;2022-08-05T01:54:44;4.45;;;3.35;;
48317;SDS011;34127;47.412;9.730;2022-08-05T01:57:11;4.38;;;2.95;;
48317;SDS011;34127;47.412;9.730;2022-08-05T01:59:38;5.40;;;3.20;;
48317;SDS011;34127;47.412;9.730;2022-08-05T02:02:05;7.70;;;3.25;;
48317;SDS011;34127;47.412;9.730;2022-08-05T02:04:33;5.13;;;2.90;;
48317;SDS011;34127;47.412;9.730;2022-08-05T02:07:00;4.35;;;2.90;;
48317;SDS011;34127;47.412;9.730;2022-08-05T02:09:26;4.28;;;2.80;;
48317;SDS011;34127;47.412;9.730;2022-08-05T02:12:53;4.03;;;3.00;;
48317;SDS011;34127;47.412;9.730;2022-08-05T02:14:52;6.65;;;3.30;;
48317;SDS011;34127;47.412;9.730;2022-08-05T02:17:40;5.35;;;3.08;;
48317;SDS011;34127;47.412;9.730;2022-08-05T02:20:11;4.18;;;3.05;;
48317;SDS011;34127;47.412;9.730;2022-08-05T02:22:41;5.10;;;3.08;;
48317;SDS011;34127;47.412;9.730;2022-08-05T02:25:11;12.43;;;3.70;;
48317;SDS011;34127;47.412;9.730;2022-08-05T02:27:38;6.20;;;3.50;;
48317;SDS011;34127;47.412;9.730;2022-08-05T02:30:05;5.85;;;2.97;;
48317;SDS011;34127;47.412;9.730;2022-08-05T02:32:32;4.43;;;3.10;;
48317;SDS011;34127;47.412;9.730;2022-08-05T02:34:59;5.15;;;2.95;;
48317;SDS011;34127;47.412;9.730;2022-08-05T02:37:25;5.78;;;2.90;;
48317;SDS011;34127;47.412;9.730;2022-08-05T02:39:52;4.13;;;2.80;;
48317;SDS011;34127;47.412;9.730;2022-08-05T02:42:19;5.40;;;3.35;;
48317;SDS011;34127;47.412;9.730;2022-08-05T02:44:45;4.45;;;3.30;;
48317;SDS011;34127;47.412;9.730;2022-08-05T02:47:12;5.57;;;3.17;;
48317;SDS011;34127;47.412;9.730;2022-08-05T02:49:39;4.97;;;3.10;;
48317;SDS011;34127;47.412;9.730;2022-08-05T02:52:08;4.40;;;2.80;;
48317;SDS011;34127;47.412;9.730;2022-08-05T02:54:35;3.92;;;2.85;;
48317;SDS011;34127;47.412;9.730;2022-08-05T02:57:03;6.85;;;3.00;;
48317;SDS011;34127;47.412;9.730;2022-08-05T02:59:30;4.00;;;3.08;;
48317;SDS011;34127;47.412;9.730;2022-08-05T03:01:56;4.32;;;3.30;;
48317;SDS011;34127;47.412;9.730;2022-08-05T03:04:24;4.93;;;3.53;;
48317;SDS011;34127;47.412;9.730;2022-08-05T03:06:50;7.47;;;3.53;;
48317;SDS011;34127;47.412;9.730;2022-08-05T03:09:17;5.60;;;3.88;;
48317;SDS011;34127;47.412;9.730;2022-08-05T03:11:43;5.07;;;3.60;;
48317;SDS011;34127;47.412;9.730;2022-08-05T03:14:09;5.18;;;3.42;;
48317;SDS011;34127;47.412;9.730;2022-08-05T03:16:35;8.93;;;3.67;;
48317;SDS011;34127;47.412;9.730;2022-08-05T03:19:02;4.30;;;3.20;;
48317;SDS011;34127;47.412;9.730;2022-08-05T03:21:28;4.80;;;3.63;;
48317;SDS011;34127;47.412;9.730;2022-08-05T03:23:55;5.25;;;3.55;;
48317;SDS011;34127;47.412;9.730;2022-08-05T03:26:21;4.65;;;3.80;;
48317;SDS011;34127;47.412;9.730;2022-08-05T03:28:48;6.88;;;3.50;;
48317;SDS011;34127;47.412;9.730;2022-08-05T03:31:14;18.13;;;4.32;;
48317;SDS011;34127;47.412;9.730;2022-08-05T03:33:40;5.43;;;3.97;;
48317;SDS011;34127;47.412;9.730;2022-08-05T03:36:06;7.10;;;3.70;;
48317;SDS011;34127;47.412;9.730;2022-08-05T03:38:35;6.57;;;3.70;;
48317;SDS011;34127;47.412;9.730;2022-08-05T03:41:05;4.40;;;3.30;;
48317;SDS011;34127;47.412;9.730;2022-08-05T03:43:32;6.78;;;3.78;;
48317;SDS011;34127;47.412;9.730;2022-08-05T03:45:58;6.80;;;4.43;;
48317;SDS011;34127;47.412;9.730;2022-08-05T03:48:25;7.20;;;4.72;;
48317;SDS011;34127;47.412;9.730;2022-08-05T03:51:09;4.97;;;3.50;;
48317;SDS011;34127;47.412;9.730;2022-08-05T03:53:46;6.20;;;3.85;;
48317;SDS011;34127;47.412;9.730;2022-08-05T03:56:21;5.53;;;3.60;;
48317;SDS011;34127;47.412;9.730;2022-08-05T03:58:47;5.45;;;3.40;;
48317;SDS011;34127;47.412;9.730;2022-08-05T04:01:13;6.70;;;3.70;;
48317;SDS011;34127;47.412;9.730;2022-08-05T04:03:41;8.27;;;3.88;;
48317;SDS011;34127;47.412;9.730;2022-08-05T04:06:09;5.95;;;3.80;;
48317;SDS011;34127;47.412;9.730;2022-08-05T04:08:35;8.25;;;3.85;;
48317;SDS011;34127;47.412;9.730;2022-08-05T04:11:02;6.70;;;3.40;;
48317;SDS011;34127;47.412;9.730;2022-08-05T04:13:29;5.97;;;3.58;;
48317;SDS011;34127;47.412;9.730;2022-08-05T04:15:55;8.77;;;3.70;;
48317;SDS011;34127;47.412;9.730;2022-08-05T04:18:22;5.38;;;3.50;;
48317;SDS011;34127;47.412;9.730;2022-08-05T04:20:52;5.68;;;3.65;;
48317;SDS011;34127;47.412;9.730;2022-08-05T04:23:19;5.43;;;3.38;;
48317;SDS011;34127;47.412;9.730;2022-08-05T04:25:46;7.35;;;3.42;;
48317;SDS011;34127;47.412;9.730;2022-08-05T04:28:12;4.40;;;3.22;;
48317;SDS011;34127;47.412;9.730;2022-08-05T04:30:38;5.25;;;3.30;;
48317;SDS011;34127;47.412;9.730;2022-08-05T04:33:04;7.55;;;3.70;;
48317;SDS011;34127;47.412;9.730;2022-08-05T04:35:30;9.48;;;3.70;;
48317;SDS011;34127;47.412;9.730;2022-08-05T04:37:56;6.80;;;3.80;;
48317;SDS011;34127;47.412;9.730;2022-08-05T04:40:22;7.28;;;3.85;;
48317;SDS011;34127;47.412;9.730;2022-08-05T04:42:48;5.00;;;3.70;;
48317;SDS011;34127;47.412;9.730;2022-08-05T04:45:14;7.72;;;4.35;;
48317;SDS011;34127;47.412;9.730;2022-08-05T04:47:41;5.57;;;3.83;;
48317;SDS011;34127;47.412;9.730;2022-08-05T04:50:07;8.20;;;3.92;;
48317;SDS011;34127;47.412;9.730;2022-08-05T04:52:33;6.65;;;3.45;;
48317;SDS011;34127;47.412;9.730;2022-08-05T04:54:59;5.03;;;3.45;;
48317;SDS011;34127;47.412;9.730;2022-08-05T04:57:25;5.53;;;3.40;;
48317;SDS011;34127;47.412;9.730;2022-08-05T04:59:51;5.78;;;3.67;;
48317;SDS011;34127;47.412;9.730;2022-08-05T05:02:18;5.47;;;3.67;;
48317;SDS011;34127;47.412;9.730;2022-08-05T05:04:44;5.82;;;3.83;;
48317;SDS011;34127;47.412;9.730;2022-08-05T05:07:10;5.75;;;3.97;;
48317;SDS011;34127;47.412;9.730;2022-08-05T05:09:36;6.03;;;3.38;;
48317;SDS011;34127;47.412;9.730;2022-08-05T05:12:02;6.10;;;3.30;;
48317;SDS011;34127;47.412;9.730;2022-08-05T05:14:28;7.75;;;4.20;;
48317;SDS011;34127;47.412;9.730;2022-08-05T05:16:54;7.68;;;4.07;;
48317;SDS011;34127;47.412;9.730;2022-08-05T05:19:20;5.22;;;3.60;;
48317;SDS011;34127;47.412;9.730;2022-08-05T05:21:46;6.40;;;3.20;;
48317;SDS011;34127;47.412;9.730;2022-08-05T05:24:12;5.90;;;3.47;;
48317;SDS011;34127;47.412;9.730;2022-08-05T05:26:38;6.93;;;3.72;;
48317;SDS011;34127;47.412;9.730;2022-08-05T05:29:05;4.70;;;3.22;;
48317;SDS011;34127;47.412;9.730;2022-08-05T05:31:31;5.75;;;3.30;;
48317;SDS011;34127;47.412;9.730;2022-08-05T05:33:57;6.63;;;3.65;;
48317;SDS011;34127;47.412;9.730;2022-08-05T05:36:23;6.32;;;3.50;;
48317;SDS011;34127;47.412;9.730;2022-08-05T05:38:50;5.57;;;3.70;;
48317;SDS011;34127;47.412;9.730;2022-08-05T05:41:16;7.60;;;3.67;;
48317;SDS011;34127;47.412;9.730;2022-08-05T05:43:42;6.20;;;3.80;;
48317;SDS011;34127;47.412;9.730;2022-08-05T05:46:08;6.03;;;3.53;;
48317;SDS011;34127;47.412;9.730;2022-08-05T05:48:34;6.32;;;3.45;;
48317;SDS011;34127;47.412;9.730;2022-08-05T05:51:00;4.95;;;3.55;;
48317;SDS011;34127;47.412;9.730;2022-08-05T05:53:27;4.20;;;3.40;;
48317;SDS011;34127;47.412;9.730;2022-08-05T05:55:53;6.90;;;3.80;;
48317;SDS011;34127;47.412;9.730;2022-08-05T05:58:19;6.85;;;3.50;;
48317;SDS011;34127;47.412;9.730;2022-08-05T06:00:45;5.15;;;3.38;;
48317;SDS011;34127;47.412;9.730;2022-08-05T06:03:11;7.47;;;3.35;;
48317;SDS011;34127;47.412;9.730;2022-08-05T06:05:37;8.50;;;4.20;;
48317;SDS011;34127;47.412;9.730;2022-08-05T06:08:04;6.88;;;3.50;;
48317;SDS011;34127;47.412;9.730;2022-08-05T06:10:30;4.43;;;3.08;;
48317;SDS011;34127;47.412;9.730;2022-08-05T06:12:57;7.22;;;3.63;;
48317;SDS011;34127;47.412;9.730;2022-08-05T06:15:24;5.03;;;3.90;;
48317;SDS011;34127;47.412;9.730;2022-08-05T06:17:50;5.68;;;4.05;;
48317;SDS011;34127;47.412;9.730;2022-08-05T06:20:16;5.95;;;3.85;;
48317;SDS011;34127;47.412;9.730;2022-08-05T06:22:42;5.72;;;3.70;;
48317;SDS011;34127;47.412;9.730;2022-08-05T06:25:08;5.43;;;3.88;;
48317;SDS011;34127;47.412;9.730;2022-08-05T06:27:35;7.43;;;3.33;;
48317;SDS011;34127;47.412;9.730;2022-08-05T06:30:01;7.28;;;4.03;;
48317;SDS011;34127;47.412;9.730;2022-08-05T06:32:27;6.80;;;3.63;;
48317;SDS011;34127;47.412;9.730;2022-08-05T06:34:54;7.20;;;3.70;;
48317;SDS011;34127;47.412;9.730;2022-08-05T06:37:21;6.78;;;3.40;;
48317;SDS011;34127;47.412;9.730;2022-08-05T06:39:47;6.78;;;3.90;;
48317;SDS011;34127;47.412;9.730;2022-08-05T06:42:13;5.60;;;3.67;;
48317;SDS011;34127;47.412;9.730;2022-08-05T06:44:40;10.48;;;5.28;;
48317;SDS011;34127;47.412;9.730;2022-08-05T06:47:06;8.05;;;4.72;;
48317;SDS011;34127;47.412;9.730;2022-08-05T06:49:32;9.75;;;4.10;;
48317;SDS011;34127;47.412;9.730;2022-08-05T06:51:59;5.53;;;3.17;;
48317;SDS011;34127;47.412;9.730;2022-08-05T06:54:25;7.97;;;3.40;;
48317;SDS011;34127;47.412;9.730;2022-08-05T06:56:51;4.97;;;3.33;;
48317;SDS011;34127;47.412;9.730;2022-08-05T06:59:17;5.97;;;3.35;;
48317;SDS011;34127;47.412;9.730;2022-08-05T07:01:43;6.28;;;3.50;;
48317;SDS011;34127;47.412;9.730;2022-08-05T07:04:09;4.88;;;3.30;;
48317;SDS011;34127;47.412;9.730;2022-08-05T07:06:35;5.70;;;3.85;;
48317;SDS011;34127;47.412;9.730;2022-08-05T07:09:02;6.00;;;3.40;;
48317;SDS011;34127;47.412;9.730;2022-08-05T07:11:28;10.75;;;3.97;;
48317;SDS011;34127;47.412;9.730;2022-08-05T07:13:55;5.55;;;3.40;;
48317;SDS011;34127;47.412;9.730;2022-08-05T07:16:40;7.67;;;3.83;;
48317;SDS011;34127;47.412;9.730;2022-08-05T07:19:19;5.07;;;3.45;;
48317;SDS011;34127;47.412;9.730;2022-08-05T07:21:46;5.85;;;3.58;;
48317;SDS011;34127;47.412;9.730;2022-08-05T07:24:12;5.82;;;3.50;;
48317;SDS011;34127;47.412;9.730;2022-08-05T07:26:39;5.22;;;3.15;;
48317;SDS011;34127;47.412;9.730;2022-08-05T07:29:05;6.25;;;3.33;;
48317;SDS011;34127;47.412;9.730;2022-08-05T07:31:31;6.03;;;3.13;;
48317;SDS011;34127;47.412;9.730;2022-08-05T07:33:58;6.15;;;3.22;;
48317;SDS011;34127;47.412;9.730;2022-08-05T07:36:24;5.45;;;3.00;;
48317;SDS011;34127;47.412;9.730;2022-08-05T07:38:51;4.43;;;3.00;;
48317;SDS011;34127;47.412;9.730;2022-08-05T07:41:18;6.03;;;3.15;;
48317;SDS011;34127;47.412;9.730;2022-08-05T07:43:44;6.22;;;3.25;;
48317;SDS011;34127;47.412;9.730;2022-08-05T07:46:10;4.40;;;3.10;;
48317;SDS011;34127;47.412;9.730;2022-08-05T07:48:37;8.10;;;3.70;;
48317;SDS011;34127;47.412;9.730;2022-08-05T07:51:03;7.85;;;3.55;;
48317;SDS011;34127;47.412;9.730;2022-08-05T07:53:29;5.57;;;3.03;;
48317;SDS011;34127;47.412;9.730;2022-08-05T07:55:55;6.90;;;3.60;;
48317;SDS011;34127;47.412;9.730;2022-08-05T07:58:21;7.63;;;3.50;;
48317;SDS011;34127;47.412;9.730;2022-08-05T08:00:47;5.72;;;3.33;;
48317;SDS011;34127;47.412;9.730;2022-08-05T08:03:14;5.53;;;3.30;;
48317;SDS011;34127;47.412;9.730;2022-08-05T08:05:40;4.28;;;3.03;;
48317;SDS011;34127;47.412;9.730;2022-08-05T08:08:10;4.38;;;3.40;;
48317;SDS011;34127;47.412;9.730;2022-08-05T08:10:36;5.93;;;3.30;;
48317;SDS011;34127;47.412;9.730;2022-08-05T08:13:02;5.95;;;3.42;;
48317;SDS011;34127;47.412;9.730;2022-08-05T08:15:29;5.25;;;2.95;;
48317;SDS011;34127;47.412;9.730;2022-08-05T08:17:55;4.57;;;2.90;;
48317;SDS011;34127;47.412;9.730;2022-08-05T08:20:21;4.75;;;3.22;;
48317;SDS011;34127;47.412;9.730;2022-08-05T08:22:51;4.88;;;3.03;;
48317;SDS011;34127;47.412;9.730;2022-08-05T08:25:18;5.30;;;3.40;;
48317;SDS011;34127;47.412;9.730;2022-08-05T08:27:44;4.25;;;3.22;;
48317;SDS011;34127;47.412;9.730;2022-08-05T08:30:11;6.60;;;3.38;;
48317;SDS011;34127;47.412;9.730;2022-08-05T08:32:37;6.03;;;3.20;;
48317;SDS011;34127;47.412;9.730;2022-08-05T08:35:04;6.15;;;3.08;;
48317;SDS011;34127;47.412;9.730;2022-08-05T08:37:30;5.40;;;3.20;;
48317;SDS011;34127;47.412;9.730;2022-08-05T08:39:56;6.10;;;3.28;;
48317;SDS011;34127;47.412;9.730;2022-08-05T08:42:22;6.93;;;3.70;;
48317;SDS011;34127;47.412;9.730;2022-08-05T08:44:48;5.30;;;3.90;;
48317;SDS011;34127;47.412;9.730;2022-08-05T08:47:15;7.88;;;3.63;;
48317;SDS011;34127;47.412;9.730;2022-08-05T08:49:45;7.95;;;3.92;;
48317;SDS011;34127;47.412;9.730;2022-08-05T08:52:13;5.03;;;3.75;;
48317;SDS011;34127;47.412;9.730;2022-08-05T08:54:42;8.43;;;3.67;;
48317;SDS011;34127;47.412;9.730;2022-08-05T08:57:11;7.55;;;3.50;;
48317;SDS011;34127;47.412;9.730;2022-08-05T08:59:37;5.97;;;3.70;;
48317;SDS011;34127;47.412;9.730;2022-08-05T09:02:04;4.72;;;3.45;;
48317;SDS011;34127;47.412;9.730;2022-08-05T09:04:34;7.60;;;3.65;;
48317;SDS011;34127;47.412;9.730;2022-08-05T09:07:07;5.18;;;3.50;;
48317;SDS011;34127;47.412;9.730;2022-08-05T09:09:33;8.00;;;3.63;;
48317;SDS011;34127;47.412;9.730;2022-08-05T09:12:00;7.43;;;3.30;;
48317;SDS011;34127;47.412;9.730;2022-08-05T09:14:27;5.82;;;3.50;;
48317;SDS011;34127;47.412;9.730;2022-08-05T09:16:53;4.00;;;3.10;;
48317;SDS011;34127;47.412;9.730;2022-08-05T09:19:19;6.75;;;3.88;;
48317;SDS011;34127;47.412;9.730;2022-08-05T09:21:45;6.18;;;3.35;;
48317;SDS011;34127;47.412;9.730;2022-08-05T09:24:11;5.32;;;3.40;;
48317;SDS011;34127;47.412;9.730;2022-08-05T09:26:38;5.00;;;3.50;;
48317;SDS011;34127;47.412;9.730;2022-08-05T09:29:05;5.25;;;3.38;;
48317;SDS011;34127;47.412;9.730;2022-08-05T09:31:32;4.68;;;3.50;;
48317;SDS011;34127;47.412;9.730;2022-08-05T09:34:00;5.07;;;3.30;;
48317;SDS011;34127;47.412;9.730;2022-08-05T09:39:22;5.40;;;3.50;;
48317;SDS011;34127;47.412;9.730;2022-08-05T09:46:49;5.30;;;3.55;;
48317;SDS011;34127;47.412;9.730;2022-08-05T09:49:31;7.20;;;3.42;;
48317;SDS011;34127;47.412;9.730;2022-08-05T09:51:57;4.63;;;3.60;;
48317;SDS011;34127;47.412;9.730;2022-08-05T09:54:29;4.95;;;3.55;;
48317;SDS011;34127;47.412;9.730;2022-08-05T09:56:55;5.65;;;3.90;;
48317;SDS011;34127;47.412;9.730;2022-08-05T09:59:22;6.68;;;3.80;;
48317;SDS011;34127;47.412;9.730;2022-08-05T10:01:48;6.15;;;3.83;;
48317;SDS011;34127;47.412;9.730;2022-08-05T10:04:16;6.35;;;3.67;;
48317;SDS011;34127;47.412;9.730;2022-08-05T10:06:52;6.03;;;4.20;;
48317;SDS011;34127;47.412;9.730;2022-08-05T10:09:19;5.20;;;3.83;;
48317;SDS011;34127;47.412;9.730;2022-08-05T10:11:46;7.13;;;3.35;;
48317;SDS011;34127;47.412;9.730;2022-08-05T10:16:50;8.68;;;4.18;;
48317;SDS011;34127;47.412;9.730;2022-08-05T10:19:16;6.65;;;3.83;;
48317;SDS011;34127;47.412;9.730;2022-08-05T10:21:42;6.65;;;4.10;;
48317;SDS011;34127;47.412;9.730;2022-08-05T10:24:11;6.68;;;3.90;;
48317;SDS011;34127;47.412;9.730;2022-08-05T10:26:41;8.35;;;3.78;;
48317;SDS011;34127;47.412;9.730;2022-08-05T10:29:07;8.60;;;3.80;;
48317;SDS011;34127;47.412;9.730;2022-08-05T10:31:35;8.10;;;3.95;;
48317;SDS011;34127;47.412;9.730;2022-08-05T10:34:01;5.25;;;3.85;;
48317;SDS011;34127;47.412;9.730;2022-08-05T10:36:27;6.32;;;4.10;;
48317;SDS011;34127;47.412;9.730;2022-08-05T10:41:39;7.85;;;3.78;;
48317;SDS011;34127;47.412;9.730;2022-08-05T10:44:08;9.07;;;3.83;;
48317;SDS011;34127;47.412;9.730;2022-08-05T10:49:11;6.18;;;4.10;;
48317;SDS011;34127;47.412;9.730;2022-08-05T10:51:44;6.07;;;3.50;;
48317;SDS011;34127;47.412;9.730;2022-08-05T10:59:05;9.15;;;3.58;;
48317;SDS011;34127;47.412;9.730;2022-08-05T11:04:30;6.03;;;3.55;;
48317;SDS011;34127;47.412;9.730;2022-08-05T11:09:25;6.70;;;3.83;;
48317;SDS011;34127;47.412;9.730;2022-08-05T11:11:52;7.32;;;3.70;;
48317;SDS011;34127;47.412;9.730;2022-08-05T11:14:36;8.35;;;3.95;;
48317;SDS011;34127;47.412;9.730;2022-08-05T11:19:48;6.17;;;3.33;;
48317;SDS011;34127;47.412;9.730;2022-08-05T11:27:46;4.57;;;3.17;;
48317;SDS011;34127;47.412;9.730;2022-08-05T11:30:12;5.22;;;3.75;;
48317;SDS011;34127;47.412;9.730;2022-08-05T11:32:38;5.97;;;3.67;;
48317;SDS011;34127;47.412;9.730;2022-08-05T11:35:05;6.63;;;3.58;;
48317;SDS011;34127;47.412;9.730;2022-08-05T11:37:41;6.32;;;3.42;;
48317;SDS011;34127;47.412;9.730;2022-08-05T11:40:07;6.35;;;3.25;;
48317;SDS011;34127;47.412;9.730;2022-08-05T11:42:33;4.50;;;3.40;;
48317;SDS011;34127;47.412;9.730;2022-08-05T11:45:01;5.32;;;3.42;;
48317;SDS011;34127;47.412;9.730;2022-08-05T11:47:27;9.43;;;4.03;;
48317;SDS011;34127;47.412;9.730;2022-08-05T11:49:57;5.25;;;3.35;;
48317;SDS011;34127;47.412;9.730;2022-08-05T11:52:25;6.18;;;3.50;;
48317;SDS011;34127;47.412;9.730;2022-08-05T11:54:51;4.43;;;3.50;;
48317;SDS011;34127;47.412;9.730;2022-08-05T11:57:18;6.03;;;3.97;;
48317;SDS011;34127;47.412;9.730;2022-08-05T11:59:44;5.70;;;3.50;;
48317;SDS011;34127;47.412;9.730;2022-08-05T12:02:10;7.18;;;3.45;;
48317;SDS011;34127;47.412;9.730;2022-08-05T12:04:37;4.35;;;3.60;;
48317;SDS011;34127;47.412;9.730;2022-08-05T12:07:07;5.63;;;3.72;;
48317;SDS011;34127;47.412;9.730;2022-08-05T12:09:39;5.68;;;3.88;;
48317;SDS011;34127;47.412;9.730;2022-08-05T12:12:06;6.75;;;3.60;;
48317;SDS011;34127;47.412;9.730;2022-08-05T12:14:39;5.00;;;3.80;;
48317;SDS011;34127;47.412;9.730;2022-08-05T12:17:09;5.10;;;3.72;;
48317;SDS011;34127;47.412;9.730;2022-08-05T12:19:42;6.50;;;3.42;;
48317;SDS011;34127;47.412;9.730;2022-08-05T12:22:09;5.00;;;3.78;;
48317;SDS011;34127;47.412;9.730;2022-08-05T12:24:40;7.10;;;3.58;;
48317;SDS011;34127;47.412;9.730;2022-08-05T12:27:07;4.90;;;3.78;;
48317;SDS011;34127;47.412;9.730;2022-08-05T12:29:33;4.90;;;3.55;;
48317;SDS011;34127;47.412;9.730;2022-08-05T12:31:59;6.82;;;3.42;;
48317;SDS011;34127;47.412;9.730;2022-08-05T12:34:27;8.68;;;3.80;;
48317;SDS011;34127;47.412;9.730;2022-08-05T12:36:55;5.82;;;3.50;;
48317;SDS011;34127;47.412;9.730;2022-08-05T12:39:22;4.72;;;3.50;;
48317;SDS011;34127;47.412;9.730;2022-08-05T12:41:48;6.75;;;3.88;;
48317;SDS011;34127;47.412;9.730;2022-08-05T12:44:14;4.43;;;3.40;;
48317;SDS011;34127;47.412;9.730;2022-08-05T12:46:41;5.57;;;3.60;;
48317;SDS011;34127;47.412;9.730;2022-08-05T12:49:08;5.20;;;3.60;;
48317;SDS011;34127;47.412;9.730;2022-08-05T12:54:20;5.13;;;3.53;;
48317;SDS011;34127;47.412;9.730;2022-08-05T12:56:50;5.90;;;3.70;;
48317;SDS011;34127;47.412;9.730;2022-08-05T12:59:18;5.45;;;3.80;;
48317;SDS011;34127;47.412;9.730;2022-08-05T13:01:52;5.03;;;3.90;;
48317;SDS011;34127;47.412;9.730;2022-08-05T13:04:19;6.30;;;3.65;;
48317;SDS011;34127;47.412;9.730;2022-08-05T13:06:45;7.03;;;3.97;;
48317;SDS011;34127;47.412;9.730;2022-08-05T13:09:12;4.53;;;3.55;;
48317;SDS011;34127;47.412;9.730;2022-08-05T13:11:40;7.60;;;4.15;;
48317;SDS011;34127;47.412;9.730;2022-08-05T13:14:24;5.25;;;3.63;;
48317;SDS011;34127;47.412;9.730;2022-08-05T13:16:55;4.95;;;3.70;;
48317;SDS011;34127;47.412;9.730;2022-08-05T13:19:22;6.95;;;4.68;;
48317;SDS011;34127;47.412;9.730;2022-08-05T13:21:49;5.20;;;3.70;;
48317;SDS011;34127;47.412;9.730;2022-08-05T13:24:16;5.38;;;4.00;;
48317;SDS011;34127;47.412;9.730;2022-08-05T13:26:45;5.85;;;4.00;;
48317;SDS011;34127;47.412;9.730;2022-08-05T13:29:12;5.82;;;3.80;;
48317;SDS011;34127;47.412;9.730;2022-08-05T13:31:38;6.53;;;3.78;;
48317;SDS011;34127;47.412;9.730;2022-08-05T13:34:04;6.75;;;3.85;;
48317;SDS011;34127;47.412;9.730;2022-08-05T13:36:30;5.07;;;3.88;;
48317;SDS011;34127;47.412;9.730;2022-08-05T13:38:58;7.40;;;3.80;;
48317;SDS011;34127;47.412;9.730;2022-08-05T13:41:24;6.78;;;3.72;;
48317;SDS011;34127;47.412;9.730;2022-08-05T13:43:50;5.53;;;4.03;;
48317;SDS011;34127;47.412;9.730;2022-08-05T13:46:16;6.40;;;3.80;;
48317;SDS011;34127;47.412;9.730;2022-08-05T13:48:42;5.38;;;3.60;;
48317;SDS011;34127;47.412;9.730;2022-08-05T13:51:09;4.88;;;3.67;;
48317;SDS011;34127;47.412;9.730;2022-08-05T13:53:37;4.55;;;3.60;;
48317;SDS011;34127;47.412;9.730;2022-08-05T13:56:03;5.45;;;3.70;;
48317;SDS011;34127;47.412;9.730;2022-08-05T13:58:29;5.35;;;3.88;;
48317;SDS011;34127;47.412;9.730;2022-08-05T14:00:56;4.00;;;3.42;;
48317;SDS011;34127;47.412;9.730;2022-08-05T14:03:22;5.07;;;3.35;;
48317;SDS011;34127;47.412;9.730;2022-08-05T14:05:48;6.53;;;3.90;;
48317;SDS011;34127;47.412;9.730;2022-08-05T14:08:14;5.95;;;3.95;;
48317;SDS011;34127;47.412;9.730;2022-08-05T14:10:41;6.32;;;3.55;;
48317;SDS011;34127;47.412;9.730;2022-08-05T14:13:07;5.63;;;3.58;;
48317;SDS011;34127;47.412;9.730;2022-08-05T14:15:33;6.18;;;3.70;;
48317;SDS011;34127;47.412;9.730;2022-08-05T14:18:00;7.20;;;3.67;;
48317;SDS011;34127;47.412;9.730;2022-08-05T14:20:27;6.07;;;3.47;;
48317;SDS011;34127;47.412;9.730;2022-08-05T14:22:54;7.22;;;4.00;;
48317;SDS011;34127;47.412;9.730;2022-08-05T14:25:20;5.85;;;3.95;;
48317;SDS011;34127;47.412;9.730;2022-08-05T14:27:47;7.90;;;4.03;;
48317;SDS011;34127;47.412;9.730;2022-08-05T14:30:15;6.07;;;4.13;;
48317;SDS011;34127;47.412;9.730;2022-08-05T14:32:41;5.68;;;3.85;;
48317;SDS011;34127;47.412;9.730;2022-08-05T14:35:07;5.85;;;4.00;;
48317;SDS011;34127;47.412;9.730;2022-08-05T14:37:33;8.38;;;3.67;;
48317;SDS011;34127;47.412;9.730;2022-08-05T14:39:59;8.43;;;3.80;;
48317;SDS011;34127;47.412;9.730;2022-08-05T14:42:25;11.20;;;4.15;;
48317;SDS011;34127;47.412;9.730;2022-08-05T14:44:52;6.80;;;3.70;;
48317;SDS011;34127;47.412;9.730;2022-08-05T14:47:18;6.95;;;3.60;;
48317;SDS011;34127;47.412;9.730;2022-08-05T14:49:44;5.15;;;3.67;;
48317;SDS011;34127;47.412;9.730;2022-08-05T14:52:10;6.43;;;3.90;;
48317;SDS011;34127;47.412;9.730;2022-08-05T14:54:36;5.75;;;3.90;;
48317;SDS011;34127;47.412;9.730;2022-08-05T14:57:02;7.00;;;3.88;;
48317;SDS011;34127;47.412;9.730;2022-08-05T14:59:29;8.10;;;4.35;;
48317;SDS011;34127;47.412;9.730;2022-08-05T15:01:55;7.70;;;3.60;;
48317;SDS011;34127;47.412;9.730;2022-08-05T15:04:21;9.18;;;5.32;;
48317;SDS011;34127;47.412;9.730;2022-08-05T15:06:50;7.82;;;4.20;;
48317;SDS011;34127;47.412;9.730;2022-08-05T15:09:17;5.10;;;3.63;;
48317;SDS011;34127;47.412;9.730;2022-08-05T15:11:44;7.20;;;3.33;;
48317;SDS011;34127;47.412;9.730;2022-08-05T15:14:10;8.77;;;3.47;;
48317;SDS011;34127;47.412;9.730;2022-08-05T15:16:36;6.00;;;3.38;;
48317;SDS011;34127;47.412;9.730;2022-08-05T15:19:02;4.82;;;3.22;;
48317;SDS011;34127;47.412;9.730;2022-08-05T15:21:28;4.68;;;3.30;;
48317;SDS011;34127;47.412;9.730;2022-08-05T15:23:54;4.95;;;3.17;;
48317;SDS011;34127;47.412;9.730;2022-08-05T15:26:20;5.45;;;3.42;;
48317;SDS011;34127;47.412;9.730;2022-08-05T15:28:47;5.45;;;3.40;;
48317;SDS011;34127;47.412;9.730;2022-08-05T15:31:13;5.40;;;3.22;;
48317;SDS011;34127;47.412;9.730;2022-08-05T15:33:39;5.15;;;3.50;;
48317;SDS011;34127;47.412;9.730;2022-08-05T15:36:06;6.00;;;3.35;;
48317;SDS011;34127;47.412;9.730;2022-08-05T15:38:32;5.97;;;3.60;;
48317;SDS011;34127;47.412;9.730;2022-08-05T15:40:59;6.88;;;3.80;;